sensor_id;sensor_type;location;lat;lon;timestamp;temperature;humidity
2130;DHT22;1071;52.544;13.374;2023-01-28T00:00:29;3.20;99.90
2130;DHT22;1071;52.544;13.374;2023-01-28T00:02:59;3.20;99.90
2130;DHT22;1071;52.544;13.374;2023-01-28T00:05:30;3.20;99.90
2130;DHT22;1071;52.544;13.374;2023-01-28T00:07:59;3.20;99.90
2130;DHT22;1071;52.544;13.374;2023-01-28T00:10:27;3.10;99.90
2130;DHT22;1071;52.544;13.374;2023-01-28T00:12:59;3.10;99.90
2130;DHT22;1071;52.544;13.374;2023-01-28T00:15:28;3.10;99.90
2130;DHT22;1071;52.544;13.374;2023-01-28T00:18:10;3.10;99.90
2130;DHT22;1071;52.544;13.374;2023-01-28T00:20:55;3.10;99.90
2130;DHT22;1071;52.544;13.374;2023-01-28T00:23:28;3.10;99.90
2130;DHT22;1071;52.544;13.374;2023-01-28T00:25:59;3.00;99.90
2130;DHT22;1071;52.544;13.374;2023-01-28T00:28:33;3.00;99.90
2130;DHT22;1071;52.544;13.374;2023-01-28T00:31:09;3.00;99.90
2130;DHT22;1071;52.544;13.374;2023-01-28T00:33:46;2.90;99.90
2130;DHT22;1071;52.544;13.374;2023-01-28T00:36:15;3.00;99.90
2130;DHT22;1071;52.544;13.374;2023-01-28T00:38:51;2.90;99.90
2130;DHT22;1071;52.544;13.374;2023-01-28T00:41:20;2.90;99.90
2130;DHT22;1071;52.544;13.374;2023-01-28T00:43:52;2.90;99.90
2130;DHT22;1071;52.544;13.374;2023-01-28T00:46:22;2.90;99.90
2130;DHT22;1071;52.544;13.374;2023-01-28T00:48:51;2.80;99.90
2130;DHT22;1071;52.544;13.374;2023-01-28T00:51:25;2.80;99.90
2130;DHT22;1071;52.544;13.374;2023-01-28T00:53:55;2.80;99.90
2130;DHT22;1071;52.544;13.374;2023-01-28T00:56:23;2.70;99.90
2130;DHT22;1071;52.544;13.374;2023-01-28T00:58:53;2.70;99.90
2130;DHT22;1071;52.544;13.374;2023-01-28T01:01:27;2.70;99.90
2130;DHT22;1071;52.544;13.374;2023-01-28T01:03:57;2.70;99.90
2130;DHT22;1071;52.544;13.374;2023-01-28T01:06:35;2.70;99.90
2130;DHT22;1071;52.544;13.374;2023-01-28T01:09:10;2.70;99.90
2130;DHT22;1071;52.544;13.374;2023-01-28T01:11:41;2.70;99.90
2130;DHT22;1071;52.544;13.374;2023-01-28T01:14:14;2.70;99.90
2130;DHT22;1071;52.544;13.374;2023-01-28T01:16:45;2.70;99.90
2130;DHT22;1071;52.544;13.374;2023-01-28T01:19:16;2.70;99.90
2130;DHT22;1071;52.544;13.374;2023-01-28T01:21:46;2.60;99.90
2130;DHT22;1071;52.544;13.374;2023-01-28T01:24:19;2.70;99.90
2130;DHT22;1071;52.544;13.374;2023-01-28T01:26:59;2.70;99.90
2130;DHT22;1071;52.544;13.374;2023-01-28T01:29:32;2.70;99.90
2130;DHT22;1071;52.544;13.374;2023-01-28T01:32:02;2.70;99.90
2130;DHT22;1071;52.544;13.374;2023-01-28T01:34:33;2.70;99.90
2130;DHT22;1071;52.544;13.374;2023-01-28T01:37:06;2.80;99.90
2130;DHT22;1071;52.544;13.374;2023-01-28T01:39:40;2.80;99.90
2130;DHT22;1071;52.544;13.374;2023-01-28T01:42:11;2.90;99.90
2130;DHT22;1071;52.544;13.374;2023-01-28T01:45:00;2.90;99.90
2130;DHT22;1071;52.544;13.374;2023-01-28T01:47:34;3.00;99.90
2130;DHT22;1071;52.544;13.374;2023-01-28T01:50:11;3.00;99.90
2130;DHT22;1071;52.544;13.374;2023-01-28T01:52:49;3.00;99.90
2130;DHT22;1071;52.544;13.374;2023-01-28T01:55:24;3.10;99.90
2130;DHT22;1071;52.544;13.374;2023-01-28T01:58:02;3.10;99.90
2130;DHT22;1071;52.544;13.374;2023-01-28T02:00:36;3.10;99.90
2130;DHT22;1071;52.544;13.374;2023-01-28T02:03:10;3.10;99.90
2130;DHT22;1071;52.544;13.374;2023-01-28T02:05:42;3.20;99.90
2130;DHT22;1071;52.544;13.374;2023-01-28T02:08:11;3.20;99.90
2130;DHT22;1071;52.544;13.374;2023-01-28T02:10:54;3.20;99.90
2130;DHT22;1071;52.544;13.374;2023-01-28T02:13:26;3.20;99.90
2130;DHT22;1071;52.544;13.374;2023-01-28T02:16:00;3.20;99.90
2130;DHT22;1071;52.544;13.374;2023-01-28T02:18:31;3.30;99.90
2130;DHT22;1071;52.544;13.374;2023-01-28T02:21:23;3.30;99.90
2130;DHT22;1071;52.544;13.374;2023-01-28T02:24:09;3.30;99.90
2130;DHT22;1071;52.544;13.374;2023-01-28T02:26:54;3.30;99.90
2130;DHT22;1071;52.544;13.374;2023-01-28T02:29:28;3.30;99.90
2130;DHT22;1071;52.544;13.374;2023-01-28T02:32:08;3.30;99.90
2130;DHT22;1071;52.544;13.374;2023-01-28T02:34:41;3.30;99.90
2130;DHT22;1071;52.544;13.374;2023-01-28T02:37:16;3.30;99.90
2130;DHT22;1071;52.544;13.374;2023-01-28T02:39:50;3.30;99.90
2130;DHT22;1071;52.544;13.374;2023-01-28T02:42:23;3.40;99.90
2130;DHT22;1071;52.544;13.374;2023-01-28T02:44:54;3.40;99.90
2130;DHT22;1071;52.544;13.374;2023-01-28T02:47:23;3.40;99.90
2130;DHT22;1071;52.544;13.374;2023-01-28T02:50:12;3.50;99.90
2130;DHT22;1071;52.544;13.374;2023-01-28T02:52:49;3.50;99.90
2130;DHT22;1071;52.544;13.374;2023-01-28T02:55:41;3.50;99.90
2130;DHT22;1071;52.544;13.374;2023-01-28T02:58:17;3.50;99.90
2130;DHT22;1071;52.544;13.374;2023-01-28T03:00:52;3.50;99.90
2130;DHT22;1071;52.544;13.374;2023-01-28T03:03:27;3.50;99.90
2130;DHT22;1071;52.544;13.374;2023-01-28T03:05:59;3.60;99.90
2130;DHT22;1071;52.544;13.374;2023-01-28T03:08:38;3.60;99.90
2130;DHT22;1071;52.544;13.374;2023-01-28T03:11:23;3.60;99.90
2130;DHT22;1071;52.544;13.374;2023-01-28T03:14:08;3.60;99.90
2130;DHT22;1071;52.544;13.374;2023-01-28T03:16:56;3.60;99.90
2130;DHT22;1071;52.544;13.374;2023-01-28T03:19:42;3.70;99.90
2130;DHT22;1071;52.544;13.374;2023-01-28T03:22:27;3.60;99.90
2130;DHT22;1071;52.544;13.374;2023-01-28T03:25:22;3.60;99.90
2130;DHT22;1071;52.544;13.374;2023-01-28T03:28:11;3.60;99.90
2130;DHT22;1071;52.544;13.374;2023-01-28T03:31:03;3.70;99.90
2130;DHT22;1071;52.544;13.374;2023-01-28T03:33:54;3.60;99.90
2130;DHT22;1071;52.544;13.374;2023-01-28T03:36:40;3.60;99.90
2130;DHT22;1071;52.544;13.374;2023-01-28T03:39:16;3.60;99.90
2130;DHT22;1071;52.544;13.374;2023-01-28T03:41:55;3.60;99.90
2130;DHT22;1071;52.544;13.374;2023-01-28T03:44:23;3.60;99.90
2130;DHT22;1071;52.544;13.374;2023-01-28T03:47:08;3.70;99.90
2130;DHT22;1071;52.544;13.374;2023-01-28T03:49:39;3.70;99.90
2130;DHT22;1071;52.544;13.374;2023-01-28T03:52:06;3.60;99.90
2130;DHT22;1071;52.544;13.374;2023-01-28T03:54:37;3.70;99.90
2130;DHT22;1071;52.544;13.374;2023-01-28T03:57:04;3.70;99.90
2130;DHT22;1071;52.544;13.374;2023-01-28T03:59:32;3.70;99.90
2130;DHT22;1071;52.544;13.374;2023-01-28T04:01:59;3.70;99.90
2130;DHT22;1071;52.544;13.374;2023-01-28T04:04:27;3.70;99.90
2130;DHT22;1071;52.544;13.374;2023-01-28T04:06:58;3.70;99.90
2130;DHT22;1071;52.544;13.374;2023-01-28T04:09:25;3.80;99.90
2130;DHT22;1071;52.544;13.374;2023-01-28T04:11:55;3.80;99.90
2130;DHT22;1071;52.544;13.374;2023-01-28T04:14:22;3.80;99.90
2130;DHT22;1071;52.544;13.374;2023-01-28T04:16:49;3.80;99.90
2130;DHT22;1071;52.544;13.374;2023-01-28T04:19:16;3.90;99.90
2130;DHT22;1071;52.544;13.374;2023-01-28T04:21:47;3.90;99.90
2130;DHT22;1071;52.544;13.374;2023-01-28T04:24:16;3.90;99.90
2130;DHT22;1071;52.544;13.374;2023-01-28T04:26:43;3.90;99.90
2130;DHT22;1071;52.544;13.374;2023-01-28T04:29:10;3.90;99.90
2130;DHT22;1071;52.544;13.374;2023-01-28T04:31:37;4.00;99.90
2130;DHT22;1071;52.544;13.374;2023-01-28T04:34:05;4.00;99.90
2130;DHT22;1071;52.544;13.374;2023-01-28T04:36:34;4.00;99.90
2130;DHT22;1071;52.544;13.374;2023-01-28T04:39:02;4.00;99.90
2130;DHT22;1071;52.544;13.374;2023-01-28T04:41:30;4.00;99.90
2130;DHT22;1071;52.544;13.374;2023-01-28T04:43:58;4.10;99.90
2130;DHT22;1071;52.544;13.374;2023-01-28T04:46:30;4.00;99.90
2130;DHT22;1071;52.544;13.374;2023-01-28T04:48:57;4.10;99.90
2130;DHT22;1071;52.544;13.374;2023-01-28T04:51:24;4.10;99.90
2130;DHT22;1071;52.544;13.374;2023-01-28T04:53:51;4.10;99.90
2130;DHT22;1071;52.544;13.374;2023-01-28T04:56:19;4.20;99.90
2130;DHT22;1071;52.544;13.374;2023-01-28T04:58:47;4.20;99.90
2130;DHT22;1071;52.544;13.374;2023-01-28T05:01:14;4.20;99.90
2130;DHT22;1071;52.544;13.374;2023-01-28T05:03:42;4.20;99.90
2130;DHT22;1071;52.544;13.374;2023-01-28T05:06:09;4.20;99.90
2130;DHT22;1071;52.544;13.374;2023-01-28T05:08:39;4.20;99.90
2130;DHT22;1071;52.544;13.374;2023-01-28T05:11:05;4.20;99.90
2130;DHT22;1071;52.544;13.374;2023-01-28T05:13:33;4.20;99.90
2130;DHT22;1071;52.544;13.374;2023-01-28T05:16:02;4.20;99.90
2130;DHT22;1071;52.544;13.374;2023-01-28T05:18:29;4.30;99.90
2130;DHT22;1071;52.544;13.374;2023-01-28T05:20:56;4.30;99.90
2130;DHT22;1071;52.544;13.374;2023-01-28T05:23:27;4.30;99.90
2130;DHT22;1071;52.544;13.374;2023-01-28T05:25:54;4.30;99.90
2130;DHT22;1071;52.544;13.374;2023-01-28T05:28:26;4.30;99.90
2130;DHT22;1071;52.544;13.374;2023-01-28T05:30:54;4.30;99.90
2130;DHT22;1071;52.544;13.374;2023-01-28T05:33:22;4.30;99.90
2130;DHT22;1071;52.544;13.374;2023-01-28T05:35:49;4.30;99.90
2130;DHT22;1071;52.544;13.374;2023-01-28T05:38:16;4.40;99.90
2130;DHT22;1071;52.544;13.374;2023-01-28T05:40:43;4.40;99.90
2130;DHT22;1071;52.544;13.374;2023-01-28T05:43:10;4.40;99.90
2130;DHT22;1071;52.544;13.374;2023-01-28T05:45:38;4.40;99.90
2130;DHT22;1071;52.544;13.374;2023-01-28T05:48:05;4.40;99.90
2130;DHT22;1071;52.544;13.374;2023-01-28T05:50:36;4.40;99.90
2130;DHT22;1071;52.544;13.374;2023-01-28T05:53:04;4.40;99.90
2130;DHT22;1071;52.544;13.374;2023-01-28T05:55:32;4.40;99.90
2130;DHT22;1071;52.544;13.374;2023-01-28T05:58:00;4.40;99.90
2130;DHT22;1071;52.544;13.374;2023-01-28T06:00:28;4.40;99.90
2130;DHT22;1071;52.544;13.374;2023-01-28T06:02:55;4.50;99.90
2130;DHT22;1071;52.544;13.374;2023-01-28T06:05:22;4.40;99.90
2130;DHT22;1071;52.544;13.374;2023-01-28T06:07:50;4.40;99.90
2130;DHT22;1071;52.544;13.374;2023-01-28T06:10:18;4.50;99.90
2130;DHT22;1071;52.544;13.374;2023-01-28T06:12:45;4.50;99.90
2130;DHT22;1071;52.544;13.374;2023-01-28T06:15:17;4.50;99.90
2130;DHT22;1071;52.544;13.374;2023-01-28T06:17:44;4.50;99.90
2130;DHT22;1071;52.544;13.374;2023-01-28T06:20:11;4.50;99.90
2130;DHT22;1071;52.544;13.374;2023-01-28T06:22:39;4.50;99.90
2130;DHT22;1071;52.544;13.374;2023-01-28T06:25:08;4.50;99.90
2130;DHT22;1071;52.544;13.374;2023-01-28T06:27:35;4.50;99.90
2130;DHT22;1071;52.544;13.374;2023-01-28T06:30:03;4.40;99.90
2130;DHT22;1071;52.544;13.374;2023-01-28T06:32:30;4.40;99.90
2130;DHT22;1071;52.544;13.374;2023-01-28T06:34:58;4.40;99.90
2130;DHT22;1071;52.544;13.374;2023-01-28T06:37:25;4.40;99.90
2130;DHT22;1071;52.544;13.374;2023-01-28T06:39:52;4.40;99.90
2130;DHT22;1071;52.544;13.374;2023-01-28T06:42:21;4.50;99.90
2130;DHT22;1071;52.544;13.374;2023-01-28T06:44:48;4.40;99.90
2130;DHT22;1071;52.544;13.374;2023-01-28T06:47:15;4.40;99.90
2130;DHT22;1071;52.544;13.374;2023-01-28T06:49:42;4.50;99.90
2130;DHT22;1071;52.544;13.374;2023-01-28T06:52:09;4.50;99.90
2130;DHT22;1071;52.544;13.374;2023-01-28T06:54:36;4.50;99.90
2130;DHT22;1071;52.544;13.374;2023-01-28T06:57:04;4.50;99.90
2130;DHT22;1071;52.544;13.374;2023-01-28T06:59:32;4.50;99.90
2130;DHT22;1071;52.544;13.374;2023-01-28T07:01:59;4.50;99.90
2130;DHT22;1071;52.544;13.374;2023-01-28T07:04:26;4.50;99.90
2130;DHT22;1071;52.544;13.374;2023-01-28T07:06:54;4.50;99.90
2130;DHT22;1071;52.544;13.374;2023-01-28T07:09:21;4.50;99.90
2130;DHT22;1071;52.544;13.374;2023-01-28T07:11:48;4.50;99.90
2130;DHT22;1071;52.544;13.374;2023-01-28T07:14:15;4.50;99.90
2130;DHT22;1071;52.544;13.374;2023-01-28T07:16:43;4.40;99.90
2130;DHT22;1071;52.544;13.374;2023-01-28T07:19:10;4.50;99.90
2130;DHT22;1071;52.544;13.374;2023-01-28T07:21:38;4.50;99.90
2130;DHT22;1071;52.544;13.374;2023-01-28T07:24:05;4.50;99.90
2130;DHT22;1071;52.544;13.374;2023-01-28T07:26:33;4.50;99.90
2130;DHT22;1071;52.544;13.374;2023-01-28T07:29:00;4.50;99.90
2130;DHT22;1071;52.544;13.374;2023-01-28T07:31:27;4.60;99.90
2130;DHT22;1071;52.544;13.374;2023-01-28T07:33:55;4.60;99.90
2130;DHT22;1071;52.544;13.374;2023-01-28T07:36:23;4.60;99.90
2130;DHT22;1071;52.544;13.374;2023-01-28T07:38:50;4.50;99.90
2130;DHT22;1071;52.544;13.374;2023-01-28T07:41:17;4.60;99.90
2130;DHT22;1071;52.544;13.374;2023-01-28T07:43:45;4.60;99.90
2130;DHT22;1071;52.544;13.374;2023-01-28T07:46:12;4.60;99.90
2130;DHT22;1071;52.544;13.374;2023-01-28T07:48:48;4.60;99.90
2130;DHT22;1071;52.544;13.374;2023-01-28T07:51:16;4.60;99.90
2130;DHT22;1071;52.544;13.374;2023-01-28T07:53:44;4.60;99.90
2130;DHT22;1071;52.544;13.374;2023-01-28T07:56:11;4.60;99.90
2130;DHT22;1071;52.544;13.374;2023-01-28T07:58:38;4.70;99.90
2130;DHT22;1071;52.544;13.374;2023-01-28T08:01:06;4.70;99.90
2130;DHT22;1071;52.544;13.374;2023-01-28T08:03:33;4.70;99.90
2130;DHT22;1071;52.544;13.374;2023-01-28T08:06:00;4.70;99.90
2130;DHT22;1071;52.544;13.374;2023-01-28T08:08:34;4.70;99.90
2130;DHT22;1071;52.544;13.374;2023-01-28T08:11:06;4.80;99.90
2130;DHT22;1071;52.544;13.374;2023-01-28T08:13:35;4.70;99.90
2130;DHT22;1071;52.544;13.374;2023-01-28T08:16:02;4.70;99.90
2130;DHT22;1071;52.544;13.374;2023-01-28T08:18:30;4.70;99.90
2130;DHT22;1071;52.544;13.374;2023-01-28T08:21:01;4.80;99.90
2130;DHT22;1071;52.544;13.374;2023-01-28T08:23:30;4.80;99.90
2130;DHT22;1071;52.544;13.374;2023-01-28T08:26:00;4.80;99.90
2130;DHT22;1071;52.544;13.374;2023-01-28T08:28:30;4.80;99.90
2130;DHT22;1071;52.544;13.374;2023-01-28T08:30:59;4.80;99.90
2130;DHT22;1071;52.544;13.374;2023-01-28T08:33:26;4.80;99.90
2130;DHT22;1071;52.544;13.374;2023-01-28T08:35:53;4.80;99.90
2130;DHT22;1071;52.544;13.374;2023-01-28T08:38:26;4.90;99.80
2130;DHT22;1071;52.544;13.374;2023-01-28T08:41:00;4.90;99.60
2130;DHT22;1071;52.544;13.374;2023-01-28T08:43:27;4.90;99.30
2130;DHT22;1071;52.544;13.374;2023-01-28T08:45:54;4.90;99.20
2130;DHT22;1071;52.544;13.374;2023-01-28T08:48:22;4.90;99.40
2130;DHT22;1071;52.544;13.374;2023-01-28T08:50:49;4.90;99.10
2130;DHT22;1071;52.544;13.374;2023-01-28T08:53:17;5.00;99.10
2130;DHT22;1071;52.544;13.374;2023-01-28T08:55:59;5.00;98.90
2130;DHT22;1071;52.544;13.374;2023-01-28T08:58:34;5.00;99.20
2130;DHT22;1071;52.544;13.374;2023-01-28T09:01:03;5.00;99.20
2130;DHT22;1071;52.544;13.374;2023-01-28T09:03:37;5.00;99.20
2130;DHT22;1071;52.544;13.374;2023-01-28T09:06:05;5.00;99.20
2130;DHT22;1071;52.544;13.374;2023-01-28T09:08:32;5.00;99.20
2130;DHT22;1071;52.544;13.374;2023-01-28T09:11:01;5.00;99.00
2130;DHT22;1071;52.544;13.374;2023-01-28T09:13:31;5.10;99.10
2130;DHT22;1071;52.544;13.374;2023-01-28T09:16:00;5.10;99.10
2130;DHT22;1071;52.544;13.374;2023-01-28T09:18:31;5.10;98.90
2130;DHT22;1071;52.544;13.374;2023-01-28T09:21:03;5.10;98.90
2130;DHT22;1071;52.544;13.374;2023-01-28T09:23:34;5.20;98.90
2130;DHT22;1071;52.544;13.374;2023-01-28T09:26:02;5.10;98.70
2130;DHT22;1071;52.544;13.374;2023-01-28T09:28:30;5.10;98.50
2130;DHT22;1071;52.544;13.374;2023-01-28T09:31:03;5.10;98.40
2130;DHT22;1071;52.544;13.374;2023-01-28T09:33:31;5.20;98.40
2130;DHT22;1071;52.544;13.374;2023-01-28T09:35:59;5.10;98.30
2130;DHT22;1071;52.544;13.374;2023-01-28T09:38:30;5.10;98.20
2130;DHT22;1071;52.544;13.374;2023-01-28T09:40:59;5.20;97.70
2130;DHT22;1071;52.544;13.374;2023-01-28T09:43:43;5.20;97.70
2130;DHT22;1071;52.544;13.374;2023-01-28T09:46:17;5.20;97.70
2130;DHT22;1071;52.544;13.374;2023-01-28T09:48:46;5.20;97.70
2130;DHT22;1071;52.544;13.374;2023-01-28T09:51:25;5.10;97.80
2130;DHT22;1071;52.544;13.374;2023-01-28T09:53:59;5.20;97.90
2130;DHT22;1071;52.544;13.374;2023-01-28T09:56:31;5.20;97.80
2130;DHT22;1071;52.544;13.374;2023-01-28T09:59:14;5.20;98.00
2130;DHT22;1071;52.544;13.374;2023-01-28T10:01:49;5.30;98.00
2130;DHT22;1071;52.544;13.374;2023-01-28T10:04:29;5.30;98.00
2130;DHT22;1071;52.544;13.374;2023-01-28T10:07:12;5.30;97.80
2130;DHT22;1071;52.544;13.374;2023-01-28T10:09:48;5.30;97.70
2130;DHT22;1071;52.544;13.374;2023-01-28T10:12:33;5.30;97.70
2130;DHT22;1071;52.544;13.374;2023-01-28T10:15:24;5.40;97.70
2130;DHT22;1071;52.544;13.374;2023-01-28T10:18:01;5.40;97.60
2130;DHT22;1071;52.544;13.374;2023-01-28T10:20:32;5.40;97.60
2130;DHT22;1071;52.544;13.374;2023-01-28T10:23:07;5.40;97.50
2130;DHT22;1071;52.544;13.374;2023-01-28T10:25:36;5.40;97.70
2130;DHT22;1071;52.544;13.374;2023-01-28T10:28:16;5.40;97.60
2130;DHT22;1071;52.544;13.374;2023-01-28T10:30:45;5.40;97.40
2130;DHT22;1071;52.544;13.374;2023-01-28T10:33:18;5.50;97.40
2130;DHT22;1071;52.544;13.374;2023-01-28T10:35:46;5.50;97.30
2130;DHT22;1071;52.544;13.374;2023-01-28T10:41:13;5.50;97.20
2130;DHT22;1071;52.544;13.374;2023-01-28T10:43:43;5.50;96.90
2130;DHT22;1071;52.544;13.374;2023-01-28T10:46:29;5.50;96.90
2130;DHT22;1071;52.544;13.374;2023-01-28T10:49:06;5.60;96.90
2130;DHT22;1071;52.544;13.374;2023-01-28T10:51:40;5.60;96.70
2130;DHT22;1071;52.544;13.374;2023-01-28T10:54:18;5.50;96.70
2130;DHT22;1071;52.544;13.374;2023-01-28T10:56:47;5.50;96.70
2130;DHT22;1071;52.544;13.374;2023-01-28T10:59:22;5.50;96.70
2130;DHT22;1071;52.544;13.374;2023-01-28T11:02:01;5.50;96.80
2130;DHT22;1071;52.544;13.374;2023-01-28T11:04:33;5.60;96.90
2130;DHT22;1071;52.544;13.374;2023-01-28T11:07:03;5.50;96.80
2130;DHT22;1071;52.544;13.374;2023-01-28T11:09:32;5.60;96.90
2130;DHT22;1071;52.544;13.374;2023-01-28T11:12:10;5.50;96.80
2130;DHT22;1071;52.544;13.374;2023-01-28T11:14:48;5.50;96.60
2130;DHT22;1071;52.544;13.374;2023-01-28T11:17:20;5.60;96.60
2130;DHT22;1071;52.544;13.374;2023-01-28T11:19:51;5.60;97.00
2130;DHT22;1071;52.544;13.374;2023-01-28T11:22:23;5.60;96.80
2130;DHT22;1071;52.544;13.374;2023-01-28T11:24:54;5.60;96.70
2130;DHT22;1071;52.544;13.374;2023-01-28T11:27:27;5.60;96.70
2130;DHT22;1071;52.544;13.374;2023-01-28T11:29:59;5.70;96.80
2130;DHT22;1071;52.544;13.374;2023-01-28T11:32:28;5.60;96.70
2130;DHT22;1071;52.544;13.374;2023-01-28T11:34:58;5.60;96.70
2130;DHT22;1071;52.544;13.374;2023-01-28T11:37:28;5.70;96.80
2130;DHT22;1071;52.544;13.374;2023-01-28T11:40:15;5.60;97.00
2130;DHT22;1071;52.544;13.374;2023-01-28T11:42:49;5.60;97.30
2130;DHT22;1071;52.544;13.374;2023-01-28T11:45:19;5.60;97.70
2130;DHT22;1071;52.544;13.374;2023-01-28T11:48:06;5.70;98.10
2130;DHT22;1071;52.544;13.374;2023-01-28T11:50:45;5.60;98.40
2130;DHT22;1071;52.544;13.374;2023-01-28T11:53:44;5.60;98.80
2130;DHT22;1071;52.544;13.374;2023-01-28T11:56:32;5.60;99.00
2130;DHT22;1071;52.544;13.374;2023-01-28T11:59:18;5.60;99.30
2130;DHT22;1071;52.544;13.374;2023-01-28T12:01:56;5.60;99.40
2130;DHT22;1071;52.544;13.374;2023-01-28T12:04:41;5.60;99.60
2130;DHT22;1071;52.544;13.374;2023-01-28T12:07:29;5.50;99.60
2130;DHT22;1071;52.544;13.374;2023-01-28T12:10:11;5.50;99.80
2130;DHT22;1071;52.544;13.374;2023-01-28T12:12:56;5.50;99.90
2130;DHT22;1071;52.544;13.374;2023-01-28T12:15:48;5.50;99.90
2130;DHT22;1071;52.544;13.374;2023-01-28T12:18:53;5.50;99.90
2130;DHT22;1071;52.544;13.374;2023-01-28T12:21:32;5.50;99.90
2130;DHT22;1071;52.544;13.374;2023-01-28T12:24:16;5.50;99.90
2130;DHT22;1071;52.544;13.374;2023-01-28T12:26:56;5.50;99.90
2130;DHT22;1071;52.544;13.374;2023-01-28T12:29:33;5.50;99.90
2130;DHT22;1071;52.544;13.374;2023-01-28T12:32:27;5.50;99.90
2130;DHT22;1071;52.544;13.374;2023-01-28T12:35:23;5.50;99.90
2130;DHT22;1071;52.544;13.374;2023-01-28T12:38:12;5.50;99.90
2130;DHT22;1071;52.544;13.374;2023-01-28T12:41:05;5.50;99.90
2130;DHT22;1071;52.544;13.374;2023-01-28T12:43:47;5.50;99.90
2130;DHT22;1071;52.544;13.374;2023-01-28T12:46:23;5.50;99.90
2130;DHT22;1071;52.544;13.374;2023-01-28T12:49:01;5.50;99.90
2130;DHT22;1071;52.544;13.374;2023-01-28T12:51:40;5.50;99.90
2130;DHT22;1071;52.544;13.374;2023-01-28T12:54:15;5.50;99.90
2130;DHT22;1071;52.544;13.374;2023-01-28T12:56:52;5.50;99.90
2130;DHT22;1071;52.544;13.374;2023-01-28T12:59:24;5.50;99.90
2130;DHT22;1071;52.544;13.374;2023-01-28T13:02:26;5.50;99.90
2130;DHT22;1071;52.544;13.374;2023-01-28T13:05:04;5.50;99.90
2130;DHT22;1071;52.544;13.374;2023-01-28T13:07:42;5.60;99.90
2130;DHT22;1071;52.544;13.374;2023-01-28T13:10:21;5.50;99.90
2130;DHT22;1071;52.544;13.374;2023-01-28T13:12:53;5.50;99.90
2130;DHT22;1071;52.544;13.374;2023-01-28T13:15:21;5.50;99.90
2130;DHT22;1071;52.544;13.374;2023-01-28T13:18:04;5.50;99.90
2130;DHT22;1071;52.544;13.374;2023-01-28T13:20:46;5.50;99.90
2130;DHT22;1071;52.544;13.374;2023-01-28T13:23:39;5.40;99.90
2130;DHT22;1071;52.544;13.374;2023-01-28T13:26:35;5.40;99.90
2130;DHT22;1071;52.544;13.374;2023-01-28T13:29:29;5.30;99.90
2130;DHT22;1071;52.544;13.374;2023-01-28T13:32:28;5.30;99.90
2130;DHT22;1071;52.544;13.374;2023-01-28T13:35:27;5.30;99.90
2130;DHT22;1071;52.544;13.374;2023-01-28T13:38:12;5.20;99.90
2130;DHT22;1071;52.544;13.374;2023-01-28T13:40:59;5.30;99.90
2130;DHT22;1071;52.544;13.374;2023-01-28T13:43:41;5.20;99.90
2130;DHT22;1071;52.544;13.374;2023-01-28T13:46:28;5.20;99.90
2130;DHT22;1071;52.544;13.374;2023-01-28T13:49:09;5.30;99.90
2130;DHT22;1071;52.544;13.374;2023-01-28T13:51:48;5.30;99.90
2130;DHT22;1071;52.544;13.374;2023-01-28T13:54:22;5.30;99.90
2130;DHT22;1071;52.544;13.374;2023-01-28T13:57:14;5.30;99.90
2130;DHT22;1071;52.544;13.374;2023-01-28T14:00:05;5.30;99.90
2130;DHT22;1071;52.544;13.374;2023-01-28T14:03:00;5.40;99.90
2130;DHT22;1071;52.544;13.374;2023-01-28T14:06:07;5.40;99.90
2130;DHT22;1071;52.544;13.374;2023-01-28T14:09:15;5.40;99.90
2130;DHT22;1071;52.544;13.374;2023-01-28T14:15:12;5.40;99.90
2130;DHT22;1071;52.544;13.374;2023-01-28T14:17:51;5.40;99.90
2130;DHT22;1071;52.544;13.374;2023-01-28T14:20:29;5.50;99.90
2130;DHT22;1071;52.544;13.374;2023-01-28T14:23:18;5.50;99.90
2130;DHT22;1071;52.544;13.374;2023-01-28T14:26:09;5.40;99.50
2130;DHT22;1071;52.544;13.374;2023-01-28T14:28:56;5.50;99.20
2130;DHT22;1071;52.544;13.374;2023-01-28T14:31:30;5.50;99.10
2130;DHT22;1071;52.544;13.374;2023-01-28T14:34:08;5.50;98.50
2130;DHT22;1071;52.544;13.374;2023-01-28T14:36:46;5.50;98.20
2130;DHT22;1071;52.544;13.374;2023-01-28T14:39:21;5.50;97.90
2130;DHT22;1071;52.544;13.374;2023-01-28T14:41:56;5.60;97.70
2130;DHT22;1071;52.544;13.374;2023-01-28T14:44:39;5.60;97.50
2130;DHT22;1071;52.544;13.374;2023-01-28T14:47:41;5.60;97.30
2130;DHT22;1071;52.544;13.374;2023-01-28T14:50:24;5.60;97.10
2130;DHT22;1071;52.544;13.374;2023-01-28T14:56:24;5.50;96.70
2130;DHT22;1071;52.544;13.374;2023-01-28T14:59:06;5.50;96.70
2130;DHT22;1071;52.544;13.374;2023-01-28T15:01:43;5.50;96.80
2130;DHT22;1071;52.544;13.374;2023-01-28T15:04:22;5.50;96.60
2130;DHT22;1071;52.544;13.374;2023-01-28T15:06:49;5.50;96.60
2130;DHT22;1071;52.544;13.374;2023-01-28T15:09:17;5.50;96.70
2130;DHT22;1071;52.544;13.374;2023-01-28T15:11:47;5.50;96.80
2130;DHT22;1071;52.544;13.374;2023-01-28T15:14:20;5.50;96.90
2130;DHT22;1071;52.544;13.374;2023-01-28T15:16:53;5.50;97.00
2130;DHT22;1071;52.544;13.374;2023-01-28T15:19:25;5.50;97.00
2130;DHT22;1071;52.544;13.374;2023-01-28T15:21:55;5.50;97.00
2130;DHT22;1071;52.544;13.374;2023-01-28T15:24:24;5.50;97.00
2130;DHT22;1071;52.544;13.374;2023-01-28T15:26:53;5.50;97.00
2130;DHT22;1071;52.544;13.374;2023-01-28T15:29:25;5.50;97.10
2130;DHT22;1071;52.544;13.374;2023-01-28T15:31:52;5.50;97.20
2130;DHT22;1071;52.544;13.374;2023-01-28T15:34:22;5.50;97.20
2130;DHT22;1071;52.544;13.374;2023-01-28T15:36:54;5.50;97.30
2130;DHT22;1071;52.544;13.374;2023-01-28T15:39:26;5.50;97.30
2130;DHT22;1071;52.544;13.374;2023-01-28T15:41:57;5.40;97.30
2130;DHT22;1071;52.544;13.374;2023-01-28T15:44:29;5.50;97.40
2130;DHT22;1071;52.544;13.374;2023-01-28T15:47:10;5.40;97.40
2130;DHT22;1071;52.544;13.374;2023-01-28T15:49:42;5.40;97.50
2130;DHT22;1071;52.544;13.374;2023-01-28T15:52:11;5.40;97.50
2130;DHT22;1071;52.544;13.374;2023-01-28T15:54:39;5.40;97.90
2130;DHT22;1071;52.544;13.374;2023-01-28T15:57:17;5.40;97.30
2130;DHT22;1071;52.544;13.374;2023-01-28T15:59:48;5.40;97.20
2130;DHT22;1071;52.544;13.374;2023-01-28T16:02:20;5.40;97.30
2130;DHT22;1071;52.544;13.374;2023-01-28T16:04:57;5.40;97.30
2130;DHT22;1071;52.544;13.374;2023-01-28T16:07:26;5.40;97.20
2130;DHT22;1071;52.544;13.374;2023-01-28T16:09:56;5.30;97.10
2130;DHT22;1071;52.544;13.374;2023-01-28T16:12:28;5.30;97.10
2130;DHT22;1071;52.544;13.374;2023-01-28T16:14:57;5.30;97.10
2130;DHT22;1071;52.544;13.374;2023-01-28T16:17:27;5.30;97.10
2130;DHT22;1071;52.544;13.374;2023-01-28T16:20:07;5.30;97.00
2130;DHT22;1071;52.544;13.374;2023-01-28T16:22:36;5.30;97.10
2130;DHT22;1071;52.544;13.374;2023-01-28T16:25:25;5.30;97.10
2130;DHT22;1071;52.544;13.374;2023-01-28T16:27:55;5.20;97.10
2130;DHT22;1071;52.544;13.374;2023-01-28T16:30:30;5.20;97.10
2130;DHT22;1071;52.544;13.374;2023-01-28T16:32:57;5.20;97.20
2130;DHT22;1071;52.544;13.374;2023-01-28T16:35:27;5.20;97.10
2130;DHT22;1071;52.544;13.374;2023-01-28T16:37:54;5.20;97.10
2130;DHT22;1071;52.544;13.374;2023-01-28T16:40:23;5.20;97.00
2130;DHT22;1071;52.544;13.374;2023-01-28T16:42:54;5.20;97.10
2130;DHT22;1071;52.544;13.374;2023-01-28T16:45:23;5.20;97.20
2130;DHT22;1071;52.544;13.374;2023-01-28T16:47:51;5.20;97.20
2130;DHT22;1071;52.544;13.374;2023-01-28T16:50:19;5.10;97.10
2130;DHT22;1071;52.544;13.374;2023-01-28T16:52:49;5.20;97.20
2130;DHT22;1071;52.544;13.374;2023-01-28T16:55:19;5.10;97.10